createdAt,value
2022-09-18T00:00:14.391Z,99267.63
2022-09-18T00:02:40.871Z,99264.22
2022-09-18T00:05:07.694Z,99267.56
2022-09-18T00:07:34.034Z,99269.13
2022-09-18T00:10:00.375Z,99261.22
2022-09-18T00:12:26.880Z,99258.28
2022-09-18T00:14:53.400Z,99252.63
2022-09-18T00:17:19.771Z,99252.63
2022-09-18T00:19:46.214Z,99269.56
2022-09-18T00:22:12.526Z,99264.47
2022-09-18T00:24:38.911Z,99258.41
2022-09-18T00:27:05.327Z,99257.53
2022-09-18T00:29:31.652Z,99257.00
2022-09-18T00:31:59.795Z,99258.84
2022-09-18T00:34:26.187Z,99257.13
2022-09-18T00:36:52.547Z,99250.66
2022-09-18T00:39:18.959Z,99262.50
2022-09-18T00:41:45.393Z,99266.75
2022-09-18T00:44:50.048Z,99262.81
2022-09-18T00:47:25.890Z,99253.91
2022-09-18T00:49:56.589Z,99258.84
2022-09-18T00:52:27.910Z,99270.13
2022-09-18T00:55:02.275Z,99265.50
2022-09-18T00:57:32.839Z,99263.38
2022-09-18T01:00:02.042Z,99259.41
2022-09-18T01:02:28.518Z,99258.56
2022-09-18T01:04:55.455Z,99260.13
2022-09-18T01:08:07.510Z,99253.47
2022-09-18T01:10:45.246Z,99258.28
2022-09-18T01:13:29.517Z,99261.22
2022-09-18T01:16:26.945Z,99257.44
2022-09-18T01:19:21.269Z,99250.09
2022-09-18T01:22:21.512Z,99259.66
2022-09-18T01:25:03.184Z,99249.81
2022-09-18T01:27:52.026Z,99257.84
2022-09-18T01:30:18.482Z,99247.84
2022-09-18T01:32:55.030Z,99268.59
2022-09-18T01:35:42.214Z,99262.41
2022-09-18T01:38:12.940Z,99257.44
2022-09-18T01:40:47.482Z,99262.69
2022-09-18T01:43:17.701Z,99263.97
2022-09-18T01:45:50.715Z,99265.34
2022-09-18T01:48:24.964Z,99260.00
2022-09-18T01:51:10.538Z,99264.06
2022-09-18T01:53:42.125Z,99259.16
2022-09-18T01:56:24.328Z,99271.97
2022-09-18T01:58:54.994Z,99260.13
2022-09-18T02:01:25.034Z,99271.84
2022-09-18T02:03:57.078Z,99269.28
2022-09-18T02:06:29.338Z,99257.44
2022-09-18T02:08:56.842Z,99261.94
2022-09-18T02:11:24.015Z,99262.25
2022-09-18T02:14:08.570Z,99267.84
2022-09-18T02:16:41.922Z,99258.97
2022-09-18T02:19:25.439Z,99265.78
2022-09-18T02:21:54.177Z,99264.75
2022-09-18T02:24:26.281Z,99267.56
2022-09-18T02:26:53.812Z,99265.50
2022-09-18T02:29:23.037Z,99260.53
2022-09-18T02:31:50.426Z,99261.81
2022-09-18T02:34:18.708Z,99262.50
2022-09-18T02:36:58.463Z,99267.84
2022-09-18T02:39:54.406Z,99263.09
2022-09-18T02:42:32.959Z,99257.59
2022-09-18T02:45:19.206Z,99256.63
2022-09-18T02:48:17.355Z,99261.97
2022-09-18T02:51:15.527Z,99259.03
2022-09-18T02:54:02.444Z,99256.91
2022-09-18T02:56:35.208Z,99258.00
2022-09-18T02:59:10.595Z,99254.78
2022-09-18T03:01:42.480Z,99247.28
2022-09-18T03:04:15.517Z,99248.44
2022-09-18T03:06:41.972Z,99250.97
2022-09-18T03:09:08.352Z,99250.69
2022-09-18T03:11:34.673Z,99251.53
2022-09-18T03:14:01.265Z,99251.81
2022-09-18T03:16:27.681Z,99250.84
2022-09-18T03:18:54.108Z,99245.75
2022-09-18T03:21:20.873Z,99245.28
2022-09-18T03:23:47.214Z,99248.97
2022-09-18T03:26:13.546Z,99233.88
2022-09-18T03:28:39.934Z,99237.09
2022-09-18T03:31:06.378Z,99243.06
2022-09-18T03:33:32.756Z,99237.69
2022-09-18T03:35:59.172Z,99240.25
2022-09-18T03:38:25.522Z,99241.91
2022-09-18T03:40:51.854Z,99224.38
2022-09-18T03:43:18.290Z,99224.66
2022-09-18T03:45:44.670Z,99219.44
2022-09-18T03:48:11.157Z,99217.91
2022-09-18T03:50:37.712Z,99227.81
2022-09-18T03:53:04.082Z,99227.53
2022-09-18T03:55:30.860Z,99216.47
2022-09-18T03:57:57.329Z,99235.56
2022-09-18T04:00:23.682Z,99236.00
2022-09-18T04:02:50.145Z,99237.09
2022-09-18T04:05:16.630Z,99247.00
2022-09-18T04:07:42.946Z,99245.72
2022-09-18T04:10:09.434Z,99244.31
2022-09-18T04:12:35.846Z,99245.00
2022-09-18T04:15:02.151Z,99250.38
2022-09-18T04:17:28.539Z,99247.28
2022-09-18T04:19:54.918Z,99248.97
2022-09-18T04:22:23.575Z,99255.03
2022-09-18T04:24:50.334Z,99240.06
2022-09-18T04:27:17.389Z,99250.78
2022-09-18T04:29:43.723Z,99252.50
2022-09-18T04:32:10.060Z,99258.56
2022-09-18T04:34:39.030Z,99252.91
2022-09-18T04:37:09.985Z,99253.06
2022-09-18T04:39:36.943Z,99243.06
2022-09-18T04:42:04.397Z,99248.97
2022-09-18T04:44:30.770Z,99244.31
2022-09-18T04:46:57.388Z,99249.81
2022-09-18T04:49:24.010Z,99246.66
2022-09-18T04:51:50.383Z,99254.75
2022-09-18T04:54:16.701Z,99252.38
2022-09-18T04:56:43.081Z,99256.03
2022-09-18T04:59:09.769Z,99243.91
2022-09-18T05:01:36.164Z,99245.00
2022-09-18T05:04:02.579Z,99245.88
2022-09-18T05:06:29.020Z,99246.88
2022-09-18T05:08:55.362Z,99247.84
2022-09-18T05:11:21.731Z,99249.25
2022-09-18T05:13:48.684Z,99247.97
2022-09-18T05:16:15.349Z,99235.72
2022-09-18T05:18:41.751Z,99236.56
2022-09-18T05:21:08.121Z,99247.56
2022-09-18T05:23:34.791Z,99236.41
2022-09-18T05:26:02.037Z,99247.56
2022-09-18T05:28:28.450Z,99245.56
2022-09-18T05:30:59.122Z,99246.72
2022-09-18T05:33:26.387Z,99241.75
2022-09-18T05:35:57.561Z,99238.47
2022-09-18T05:38:25.127Z,99229.47
2022-09-18T05:40:51.683Z,99245.00
2022-09-18T05:43:18.268Z,99237.38
2022-09-18T05:45:44.793Z,99245.13
2022-09-18T05:48:14.215Z,99243.44
2022-09-18T05:50:42.058Z,99239.66
2022-09-18T05:53:13.603Z,99237.09
2022-09-18T05:55:40.181Z,99239.03
2022-09-18T05:58:11.917Z,99235.66
2022-09-18T06:00:38.587Z,99235.09
2022-09-18T06:03:11.595Z,99235.38
2022-09-18T06:05:38.614Z,99244.25
2022-09-18T06:08:07.324Z,99238.63
2022-09-18T06:10:37.701Z,99245.56
2022-09-18T06:13:09.075Z,99252.31
2022-09-18T06:15:36.582Z,99246.94
2022-09-18T06:18:04.258Z,99252.75
2022-09-18T06:20:30.601Z,99251.06
2022-09-18T06:23:01.005Z,99250.75
2022-09-18T06:25:28.464Z,99254.88
2022-09-18T06:28:00.126Z,99246.53
2022-09-18T06:30:32.409Z,99237.06
2022-09-18T06:33:07.474Z,99239.84
2022-09-18T06:35:34.488Z,99239.59
2022-09-18T06:38:05.411Z,99248.34
2022-09-18T06:40:32.916Z,99250.09
2022-09-18T06:43:01.659Z,99257.19
2022-09-18T06:45:28.961Z,99251.25
2022-09-18T06:47:55.674Z,99249.66
2022-09-18T06:50:23.028Z,99257.59
2022-09-18T06:52:49.382Z,99255.63
2022-09-18T06:55:16.995Z,99252.78
2022-09-18T06:57:43.676Z,99262.66
2022-09-18T07:00:11.192Z,99270.19
2022-09-18T07:02:37.794Z,99257.44
2022-09-18T07:05:04.438Z,99258.56
2022-09-18T07:07:30.753Z,99256.81
2022-09-18T07:09:57.078Z,99251.63
2022-09-18T07:12:23.413Z,99251.31
2022-09-18T07:14:51.467Z,99257.00
2022-09-18T07:17:19.769Z,99257.81
2022-09-18T07:19:47.621Z,99252.19
2022-09-18T07:22:13.945Z,99248.03
2022-09-18T07:24:40.270Z,99247.13
2022-09-18T07:27:07.631Z,99238.59
2022-09-18T07:29:34.083Z,99238.38
2022-09-18T07:32:02.023Z,99244.41
2022-09-18T07:34:28.572Z,99245.25
2022-09-18T07:36:54.882Z,99235.56
2022-09-18T07:39:21.243Z,99237.56
2022-09-18T07:41:47.851Z,99233.38
2022-09-18T07:44:14.495Z,99230.72
2022-09-18T07:46:40.888Z,99236.19
2022-09-18T07:49:07.238Z,99239.47
2022-09-18T07:51:33.562Z,99244.25
2022-09-18T07:53:59.940Z,99236.97
2022-09-18T07:56:26.347Z,99239.97
2022-09-18T07:58:52.711Z,99239.47
2022-09-18T08:01:19.120Z,99232.81
2022-09-18T08:03:45.803Z,99239.19
2022-09-18T08:06:12.651Z,99241.44
2022-09-18T08:08:39.041Z,99237.56
2022-09-18T08:11:05.568Z,99240.94
2022-09-18T08:13:32.109Z,99239.97
2022-09-18T08:15:58.679Z,99238.97
2022-09-18T08:18:25.365Z,99238.97
2022-09-18T08:20:51.695Z,99236.69
2022-09-18T08:23:18.057Z,99229.78
2022-09-18T08:25:44.384Z,99229.78
2022-09-18T08:28:10.846Z,99223.72
2022-09-18T08:30:37.223Z,99233.56
2022-09-18T08:33:06.338Z,99237.25
2022-09-18T08:35:33.505Z,99233.56
2022-09-18T08:38:00.811Z,99234.75
2022-09-18T08:40:50.352Z,99231.16
2022-09-18T08:43:34.598Z,99224.41
2022-09-18T08:46:22.573Z,99219.63
2022-09-18T08:48:57.945Z,99221.94
2022-09-18T08:51:34.720Z,99213.31
2022-09-18T08:54:15.484Z,99210.34
2022-09-18T08:56:42.817Z,99238.09
2022-09-18T08:59:21.389Z,99235.00
2022-09-18T09:01:55.779Z,99221.50
2022-09-18T09:04:28.421Z,99221.50
2022-09-18T09:07:02.751Z,99228.94
2022-09-18T09:09:45.875Z,99223.97
2022-09-18T09:12:44.420Z,99225.63
2022-09-18T09:15:39.079Z,99224.22
2022-09-18T09:18:22.407Z,99226.50
2022-09-18T09:20:52.538Z,99218.81
2022-09-18T09:23:18.807Z,99217.41
2022-09-18T09:25:54.854Z,99213.09
2022-09-18T09:28:28.594Z,99219.69
2022-09-18T09:30:59.543Z,99218.00
2022-09-18T09:34:13.794Z,99216.63
2022-09-18T09:36:42.334Z,99204.16
2022-09-18T09:39:17.874Z,99210.56
2022-09-18T09:41:49.448Z,99214.34
2022-09-18T09:44:18.581Z,99219.09
2022-09-18T09:47:00.961Z,99216.78
2022-09-18T09:49:30.259Z,99225.06
2022-09-18T09:52:10.849Z,99207.13
2022-09-18T09:54:37.298Z,99196.34
2022-09-18T09:57:27.118Z,99197.34
2022-09-18T10:00:18.114Z,99193.03
2022-09-18T10:03:06.282Z,99195.72
2022-09-18T10:05:56.876Z,99195.97
2022-09-18T10:08:40.242Z,99205.97
2022-09-18T10:11:11.157Z,99203.22
2022-09-18T10:13:59.586Z,99211.78
2022-09-18T10:16:33.733Z,99212.41
2022-09-18T10:19:00.695Z,99212.50
2022-09-18T10:21:31.407Z,99211.66
2022-09-18T10:24:19.299Z,99222.78
2022-09-18T10:26:53.666Z,99228.56
2022-09-18T10:29:20.033Z,99219.94
2022-09-18T10:31:50.232Z,99218.72
2022-09-18T10:34:45.834Z,99219.84
2022-09-18T10:37:32.393Z,99212.47
2022-09-18T10:40:01.171Z,99214.56
2022-09-18T10:42:29.928Z,99211.03
2022-09-18T10:45:02.071Z,99210.22
2022-09-18T10:47:34.206Z,99196.13
2022-09-18T10:50:06.459Z,99193.16
2022-09-18T10:52:37.015Z,99192.69
2022-09-18T10:55:06.198Z,99183.72
2022-09-18T10:57:32.519Z,99179.97
2022-09-18T10:59:59.702Z,99189.03
2022-09-18T11:02:29.454Z,99189.56
2022-09-18T11:04:56.310Z,99184.00
2022-09-18T11:07:26.026Z,99180.31
2022-09-18T11:09:52.802Z,99189.50
2022-09-18T11:12:22.232Z,99196.03
2022-09-18T11:15:02.402Z,99203.84
2022-09-18T11:17:32.428Z,99202.41
2022-09-18T11:20:01.728Z,99203.56
2022-09-18T11:22:42.953Z,99201.31
2022-09-18T11:25:24.730Z,99207.34
2022-09-18T11:27:56.275Z,99189.84
2022-09-18T11:30:31.730Z,99190.91
2022-09-18T11:33:26.057Z,99195.91
2022-09-18T11:36:09.016Z,99194.28
2022-09-18T11:38:45.304Z,99190.03
2022-09-18T11:41:13.792Z,99185.97
2022-09-18T11:43:43.077Z,99182.06
2022-09-18T11:46:31.303Z,99182.50
2022-09-18T11:49:12.947Z,99185.97
2022-09-18T11:51:56.743Z,99183.06
2022-09-18T11:54:33.545Z,99192.53
2022-09-18T11:57:03.972Z,99197.56
2022-09-18T11:59:40.204Z,99202.63
2022-09-18T12:02:28.788Z,99190.38
2022-09-18T12:05:01.797Z,99206.28
2022-09-18T12:07:37.500Z,99193.81
2022-09-18T12:10:19.988Z,99188.75
2022-09-18T12:13:13.375Z,99187.91
2022-09-18T12:15:43.645Z,99179.69
2022-09-18T12:18:19.936Z,99190.16
2022-09-18T12:20:52.163Z,99194.25
2022-09-18T12:23:25.726Z,99195.22
2022-09-18T12:26:04.623Z,99180.63
2022-09-18T12:29:16.459Z,99181.56
2022-09-18T12:32:01.105Z,99184.50
2022-09-18T12:34:43.987Z,99174.03
2022-09-18T12:37:31.808Z,99184.25
2022-09-18T12:40:15.622Z,99193.69
2022-09-18T12:43:21.904Z,99194.38
2022-09-18T12:46:08.336Z,99195.53
2022-09-18T12:48:37.774Z,99192.22
2022-09-18T12:51:33.205Z,99175.09
2022-09-18T12:54:09.464Z,99171.63
2022-09-18T12:56:50.539Z,99180.63
2022-09-18T12:59:53.913Z,99171.69
2022-09-18T13:02:57.105Z,99166.94
2022-09-18T13:05:33.950Z,99169.31
2022-09-18T13:08:48.705Z,99163.66
2022-09-18T13:11:37.472Z,99158.66
2022-09-18T13:14:10.262Z,99154.53
2022-09-18T13:16:50.023Z,99156.91
2022-09-18T13:19:28.088Z,99144.06
2022-09-18T13:21:57.423Z,99134.03
2022-09-18T13:24:32.948Z,99139.09
2022-09-18T13:27:03.668Z,99135.94
2022-09-18T13:29:51.302Z,99135.72
2022-09-18T13:32:41.558Z,99124.28
2022-09-18T13:35:22.043Z,99121.59
2022-09-18T13:37:49.147Z,99129.63
2022-09-18T13:40:36.848Z,99134.28
2022-09-18T13:43:27.524Z,99129.56
2022-09-18T13:46:06.556Z,99123.31
2022-09-18T13:48:45.354Z,99120.94
2022-09-18T13:51:23.074Z,99114.25
2022-09-18T13:54:28.678Z,99106.84
2022-09-18T13:57:04.782Z,99104.63
2022-09-18T13:59:51.023Z,99109.63
2022-09-18T14:02:38.242Z,99112.09
2022-09-18T14:05:08.139Z,99113.66
2022-09-18T14:07:34.457Z,99126.13
2022-09-18T14:10:06.595Z,99129.50
2022-09-18T14:12:35.447Z,99130.97
2022-09-18T14:15:03.294Z,99137.50
2022-09-18T14:17:32.000Z,99150.72
2022-09-18T14:20:09.301Z,99146.25
2022-09-18T14:22:38.141Z,99162.84
2022-09-18T14:25:07.174Z,99176.94
2022-09-18T14:27:55.932Z,99166.50
2022-09-18T14:30:27.416Z,99194.44
2022-09-18T14:33:02.901Z,99169.38
2022-09-18T14:35:41.952Z,99166.06
2022-09-18T14:38:46.721Z,99169.00
2022-09-18T14:41:19.089Z,99168.28
2022-09-18T14:44:00.135Z,99170.44
2022-09-18T14:46:27.725Z,99176.09
2022-09-18T14:48:55.127Z,99183.72
2022-09-18T14:51:28.192Z,99179.47
2022-09-18T14:53:57.458Z,99167.09
2022-09-18T14:56:29.318Z,99159.97
2022-09-18T14:58:58.626Z,99161.84
2022-09-18T15:01:28.554Z,99160.97
2022-09-18T15:03:56.807Z,99156.44
2022-09-18T15:06:33.921Z,99155.56
2022-09-18T15:09:01.645Z,99167.28
2022-09-18T15:11:37.703Z,99161.91
2022-09-18T15:14:19.909Z,99157.41
2022-09-18T15:16:55.314Z,99152.59
2022-09-18T15:19:21.687Z,99149.28
2022-09-18T15:21:49.282Z,99152.84
2022-09-18T15:24:17.417Z,99153.22
2022-09-18T15:26:56.110Z,99150.38
2022-09-18T15:29:31.654Z,99140.91
2022-09-18T15:31:58.581Z,99141.63
2022-09-18T15:34:31.357Z,99137.06
2022-09-18T15:37:02.921Z,99137.28
2022-09-18T15:39:33.355Z,99131.16
2022-09-18T15:42:21.237Z,99127.38
2022-09-18T15:44:50.578Z,99142.72
2022-09-18T15:47:26.080Z,99138.66
2022-09-18T15:49:52.882Z,99140.66
2022-09-18T15:53:08.729Z,99148.72
2022-09-18T15:55:57.129Z,99136.56
2022-09-18T15:58:37.969Z,99143.63
2022-09-18T16:01:06.905Z,99149.41
2022-09-18T16:03:35.627Z,99149.53
2022-09-18T16:06:05.090Z,99141.63
2022-09-18T16:08:33.983Z,99145.75
2022-09-18T16:11:00.848Z,99142.66
2022-09-18T16:13:35.292Z,99138.16
2022-09-18T16:16:14.295Z,99132.94
2022-09-18T16:19:08.534Z,99130.81
2022-09-18T16:21:40.479Z,99120.94
2022-09-18T16:24:20.955Z,99125.75
2022-09-18T16:26:47.371Z,99122.31
2022-09-18T16:29:22.877Z,99125.44
2022-09-18T16:31:49.218Z,99117.25
2022-09-18T16:34:27.759Z,99117.09
2022-09-18T16:36:58.235Z,99114.63
2022-09-18T16:39:26.800Z,99113.31
2022-09-18T16:41:53.595Z,99116.41
2022-09-18T16:44:19.997Z,99104.84
2022-09-18T16:47:09.489Z,99108.25
2022-09-18T16:49:39.911Z,99113.13
2022-09-18T16:52:06.263Z,99120.69
2022-09-18T16:54:32.995Z,99117.84
2022-09-18T16:57:16.009Z,99122.06
2022-09-18T16:59:43.239Z,99125.94
2022-09-18T17:02:11.329Z,99121.84
2022-09-18T17:04:37.678Z,99121.84
2022-09-18T17:07:04.340Z,99113.94
2022-09-18T17:09:30.728Z,99121.88
2022-09-18T17:11:57.087Z,99121.34
2022-09-18T17:14:24.532Z,99121.44
2022-09-18T17:16:51.407Z,99127.53
2022-09-18T17:19:18.837Z,99122.16
2022-09-18T17:21:45.347Z,99119.50
2022-09-18T17:24:12.120Z,99129.81
2022-09-18T17:26:40.334Z,99128.16
2022-09-18T17:29:07.000Z,99132.34
2022-09-18T17:31:33.428Z,99129.25
2022-09-18T17:34:00.778Z,99131.53
2022-09-18T17:36:27.253Z,99127.91
2022-09-18T17:38:53.701Z,99136.00
2022-09-18T17:41:20.483Z,99139.56
2022-09-18T17:43:53.567Z,99148.88
2022-09-18T17:46:20.597Z,99160.19
2022-09-18T17:48:46.965Z,99154.25
2022-09-18T17:51:16.541Z,99148.47
2022-09-18T17:53:44.875Z,99150.88
2022-09-18T17:56:12.942Z,99143.66
2022-09-18T17:58:41.164Z,99149.88
2022-09-18T18:01:17.124Z,99152.00
2022-09-18T18:03:44.098Z,99146.91
2022-09-18T18:06:13.232Z,99155.34
2022-09-18T18:08:39.701Z,99158.88
2022-09-18T18:11:09.166Z,99164.94
2022-09-18T18:13:37.471Z,99159.84
2022-09-18T18:16:23.203Z,99165.50
2022-09-18T18:18:51.531Z,99173.09
2022-09-18T18:21:18.608Z,99186.88
2022-09-18T18:23:45.463Z,99186.06
2022-09-18T18:26:11.902Z,99207.47
2022-09-18T18:28:40.017Z,99211.06
2022-09-18T18:31:11.362Z,99211.66
2022-09-18T18:33:39.614Z,99223.34
2022-09-18T18:36:15.678Z,99228.56
2022-09-18T18:38:44.038Z,99240.09
2022-09-18T18:41:12.401Z,99237.00
2022-09-18T18:43:42.636Z,99232.09
2022-09-18T18:46:12.679Z,99237.38
2022-09-18T18:48:43.731Z,99239.09
2022-09-18T18:51:15.341Z,99253.19
2022-09-18T18:53:43.065Z,99253.88
2022-09-18T18:56:12.422Z,99244.06
2022-09-18T18:58:39.575Z,99243.06
2022-09-18T19:01:06.967Z,99233.06
2022-09-18T19:03:38.209Z,99232.78
2022-09-18T19:06:06.548Z,99252.09
2022-09-18T19:08:34.226Z,99250.28
2022-09-18T19:11:03.223Z,99243.09
2022-09-18T19:13:29.747Z,99253.66
2022-09-18T19:15:56.140Z,99247.63
2022-09-18T19:18:23.031Z,99258.44
2022-09-18T19:20:52.231Z,99266.06
2022-09-18T19:23:19.878Z,99279.44
2022-09-18T19:25:46.505Z,99260.00
2022-09-18T19:28:15.359Z,99237.34
2022-09-18T19:30:42.557Z,99239.16
2022-09-18T19:33:14.793Z,99222.97
2022-09-18T19:35:41.717Z,99213.66
2022-09-18T19:38:08.331Z,99209.69
2022-09-18T19:40:37.866Z,99233.66
2022-09-18T19:43:20.345Z,99253.31
2022-09-18T19:45:48.568Z,99266.13
2022-09-18T19:48:21.771Z,99289.34
2022-09-18T19:50:48.222Z,99279.22
2022-09-18T19:53:15.171Z,99274.47
2022-09-18T19:55:47.470Z,99275.84
2022-09-18T19:58:15.516Z,99278.78
2022-09-18T20:00:43.570Z,99283.16
2022-09-18T20:03:10.427Z,99271.03
2022-09-18T20:05:38.210Z,99275.91
2022-09-18T20:08:06.398Z,99279.38
2022-09-18T20:10:38.327Z,99276.63
2022-09-18T20:13:05.933Z,99275.13
2022-09-18T20:15:32.456Z,99272.78
2022-09-18T20:17:59.356Z,99280.22
2022-09-18T20:20:26.115Z,99274.16
2022-09-18T20:22:53.800Z,99265.88
2022-09-18T20:25:20.859Z,99284.53
2022-09-18T20:27:47.333Z,99267.97
2022-09-18T20:30:13.872Z,99276.41
2022-09-18T20:32:40.432Z,99275.16
2022-09-18T20:35:07.586Z,99272.34
2022-09-18T20:37:34.121Z,99273.44
2022-09-18T20:40:01.995Z,99274.56
2022-09-18T20:42:32.684Z,99277.38
2022-09-18T20:45:02.287Z,99278.59
2022-09-18T20:47:36.547Z,99287.00
2022-09-18T20:50:10.310Z,99277.06
2022-09-18T20:52:39.049Z,99289.97
2022-09-18T20:55:12.420Z,99285.50
2022-09-18T20:57:40.411Z,99295.44
2022-09-18T21:00:10.285Z,99293.75
2022-09-18T21:02:38.053Z,99298.63
2022-09-18T21:05:13.711Z,99289.91
2022-09-18T21:07:45.602Z,99289.38
2022-09-18T21:10:13.388Z,99288.91
2022-09-18T21:12:39.988Z,99290.63
2022-09-18T21:15:12.845Z,99295.75
2022-09-18T21:17:39.546Z,99299.59
2022-09-18T21:20:06.188Z,99291.56
2022-09-18T21:22:33.309Z,99302.38
2022-09-18T21:24:59.874Z,99305.81
2022-09-18T21:27:26.676Z,99304.00
2022-09-18T21:29:53.944Z,99295.16
2022-09-18T21:32:20.771Z,99303.25
2022-09-18T21:34:47.476Z,99303.75
2022-09-18T21:37:14.415Z,99297.03
2022-09-18T21:39:43.491Z,99289.91
2022-09-18T21:42:09.862Z,99301.78
2022-09-18T21:44:37.572Z,99298.63
2022-09-18T21:47:06.285Z,99295.44
2022-09-18T21:49:33.745Z,99293.41
2022-09-18T21:52:03.811Z,99295.19
2022-09-18T21:54:36.363Z,99295.97
2022-09-18T21:57:03.182Z,99305.66
2022-09-18T21:59:31.193Z,99299.09
2022-09-18T22:01:58.782Z,99306.13
2022-09-18T22:04:28.593Z,99303.72
2022-09-18T22:06:57.418Z,99295.19
2022-09-18T22:09:33.162Z,99302.97
2022-09-18T22:12:01.291Z,99301.53
2022-09-18T22:14:32.070Z,99300.19
2022-09-18T22:17:03.984Z,99305.41
2022-09-18T22:19:33.085Z,99314.88
2022-09-18T22:22:00.163Z,99314.09
2022-09-18T22:24:27.968Z,99313.38
2022-09-18T22:27:08.298Z,99319.41
2022-09-18T22:29:37.039Z,99308.59
2022-09-18T22:32:04.214Z,99317.50
2022-09-18T22:34:32.486Z,99322.47
2022-09-18T22:37:00.061Z,99311.78
2022-09-18T22:39:26.768Z,99317.00
2022-09-18T22:41:53.649Z,99323.06
2022-09-18T22:44:21.722Z,99329.28
2022-09-18T22:46:49.958Z,99322.56
2022-09-18T22:49:17.794Z,99319.06
2022-09-18T22:51:45.793Z,99334.19
2022-09-18T22:54:15.005Z,99329.41
2022-09-18T22:56:44.793Z,99329.66
2022-09-18T22:59:17.782Z,99333.63
2022-09-18T23:01:56.172Z,99337.91
2022-09-18T23:04:27.899Z,99332.78
2022-09-18T23:06:54.903Z,99339.84
2022-09-18T23:09:21.651Z,99336.97
2022-09-18T23:11:53.231Z,99338.84
2022-09-18T23:14:23.210Z,99341.66
2022-09-18T23:16:50.172Z,99335.94
2022-09-18T23:19:19.735Z,99340.13
2022-09-18T23:21:46.337Z,99341.81
2022-09-18T23:24:14.502Z,99347.28
2022-09-18T23:26:44.721Z,99337.44
2022-09-18T23:29:13.796Z,99344.50
2022-09-18T23:31:42.933Z,99347.56
2022-09-18T23:34:19.148Z,99361.75
2022-09-18T23:36:54.546Z,99352.19
2022-09-18T23:39:28.625Z,99358.13
2022-09-18T23:41:58.721Z,99355.13
2022-09-18T23:44:28.560Z,99349.50
2022-09-18T23:46:56.182Z,99355.31
2022-09-18T23:49:23.673Z,99351.91
2022-09-18T23:51:52.726Z,99350.94
2022-09-18T23:54:22.450Z,99347.59
2022-09-18T23:56:49.506Z,99356.75
2022-09-18T23:59:20.764Z,99358.91
